°C

Conditions at local time : on    Forecast:

Nearby METAR Reports

EGKA - Shoreham-By-Sea, United Kingdom
Distance from station: ENE 4mi, 6km
Updated: Wed, 05-Aug-2020 7:50pm BST
NOT Current
Few Clouds
Few Clouds
 Wind from SSW
Wind: SSW 6 mph , 9 km/h
Temperature: 19°C
Dew Point: 15°C
Humidity: 78%
Barometer: 1014 hPa
Clouds: Few Clouds
Visibility: 6 miles , 10 km
Cloud details: Few Clouds 1372 m
2020/08/05 18:50 EGKA 051850Z 20005KT 9999 FEW045 19/15 Q1014
EGKK - London/Gatwick A, United Kingdom
Distance from station: NNE 24mi, 39km
Updated: Thu, 06-Aug-2020 7:20am BST
Mostly Cloudy
Mostly Cloudy
 Wind from SSW
Wind: SSW 7 mph , 11 km/h
Temperature: 19°C
Dew Point: 17°C
Humidity: 88%
Barometer: 1017 hPa
Clouds: Mostly Cloudy
Visibility: 6 miles , 10 km
Cloud details: Mostly Cloudy 274 m
2020/08/06 06:20 EGKK 060620Z 20006KT 9999 BKN009 19/17 Q1017
 
EGLF - Farnborough, United Kingdom
Distance from station: NNW 37mi, 59km
Updated: Thu, 06-Aug-2020 7:20am BST
Light drizzle, Mostly cloudy
Light drizzle, Mostly cloudy
 Wind from S
Wind: S 6 mph , 9 km/h
Temperature: 18°C
Dew Point: 17°C
Humidity: 94%
Barometer: 1016 hPa
Summary: Light Drizzle
Clouds: Mostly Cloudy
Visibility: 3 miles , 5 km
Cloud details: Mostly Cloudy 213 m
Mostly Cloudy 366 m
Mostly Cloudy 975 m
2020/08/06 06:20 EGLF 060620Z 18005KT 4500 -DZ BKN007 BKN012 BKN032 18/17 Q1016
EGVO - Odiham Raf, United Kingdom
Distance from station: NW 38mi, 61km
Updated: Thu, 06-Aug-2020 6:50am BST
Light drizzle, Mostly cloudy
Light drizzle, Mostly cloudy
 Wind from S
Wind: S 8 mph , 13 km/h
Temperature: 18°C
Dew Point: 18°C
Humidity: 100%
Barometer: 1016 hPa
Summary: Light Drizzle
Clouds: Mostly Cloudy
Visibility: 6 miles , 10 km
Cloud details: Partly Cloudy 152 m
Mostly Cloudy 701 m
2020/08/06 05:50 EGVO 060550Z 18007KT 9999 6000SW -DZ SCT005 BKN023 18/18 Q1016 RMK YLO1